Time;durP1;ratioP1;P1;durP2;ratioP2;P2;SDS_P1;SDS_P2;PMS_P1;PMS_P2;Temp;Humidity;BMP_temperature;BMP_pressure;BME280_temperature;BME280_humidity;BME280_pressure;Samples;Min_cycle;Max_cycle;Signal;HPM_P1;HPM_P2
2023/04/05 00:02:02;;;;;;;15.00;4.82;;;;;;;;;;4880690;29;19934;-63
2023/04/05 00:04:33;;;;;;;;;;;;;;;;;;4880784;29;20064;-63
2023/04/05 00:07:07;;;;;;;13.75;4.90;;;;;;;;;;4867356;29;20288;-61
2023/04/05 00:09:37;;;;;;;15.05;3.88;;;;;;;;;;4871654;29;20056;-64
2023/04/05 00:12:09;;;;;;;14.20;3.75;;;;;;;;;;4846838;29;20088;-64
2023/04/05 00:14:42;;;;;;;18.63;4.30;;;;;;;;;;4845165;29;20049;-64
2023/04/05 00:17:12;;;;;;;9.25;3.47;;;;;;;;;;4895946;29;20219;-61
2023/04/05 00:19:43;;;;;;;14.23;3.63;;;;;;;;;;4933409;29;20066;-63
2023/04/05 00:22:19;;;;;;;12.05;4.40;;;;;;;;;;4938096;28;20055;-62
2023/04/05 00:24:49;;;;;;;16.27;4.38;;;;;;;;;;4909048;28;20087;-62
2023/04/05 00:27:19;;;;;;;13.57;4.03;;;;;;;;;;4971936;28;20530;-62
2023/04/05 00:29:49;;;;;;;11.70;3.92;;;;;;;;;;4969763;28;20047;-62
2023/04/05 00:32:21;;;;;;;19.23;5.45;;;;;;;;;;4983745;28;20050;-62
2023/04/05 00:34:51;;;;;;;13.73;4.45;;;;;;;;;;4939899;28;20047;-62
2023/04/05 00:37:24;;;;;;;15.57;4.20;;;;;;;;;;4972015;28;20058;-62
2023/04/05 00:39:56;;;;;;;13.55;4.35;;;;;;;;;;4955900;28;20062;-64
2023/04/05 00:42:28;;;;;;;11.23;3.83;;;;;;;;;;4914327;29;20048;-61
2023/04/05 00:44:59;;;;;;;10.55;4.03;;;;;;;;;;4861647;29;20057;-62
2023/04/05 00:47:32;;;;;;;13.30;4.22;;;;;;;;;;4861623;29;20506;-61
2023/04/05 00:50:03;;;;;;;12.57;4.43;;;;;;;;;;4861997;29;20072;-61
2023/04/05 00:52:36;;;;;;;15.45;4.38;;;;;;;;;;4876464;29;20068;-62
2023/04/05 00:55:09;;;;;;;10.63;4.18;;;;;;;;;;4857892;29;20052;-63
2023/04/05 00:57:41;;;;;;;12.25;4.45;;;;;;;;;;4828243;29;20491;-63
2023/04/05 01:00:11;;;;;;;14.27;4.50;;;;;;;;;;4842271;29;20076;-62
2023/04/05 01:02:48;;;;;;;17.98;5.03;;;;;;;;;;4842755;29;20060;-63
2023/04/05 01:05:36;;;;;;;17.95;5.38;;;;;;;;;;4824408;29;20078;-63
2023/04/05 01:08:37;;;;;;;16.63;5.30;;;;;;;;;;4825632;29;20062;-61
2023/04/05 01:11:12;;;;;;;20.35;5.45;;;;;;;;;;4839065;29;20050;-62
2023/04/05 01:13:45;;;;;;;16.63;5.57;;;;;;;;;;4879990;29;20049;-62
2023/04/05 01:16:16;;;;;;;14.30;5.38;;;;;;;;;;4863862;29;20433;-63
2023/04/05 01:18:47;;;;;;;13.15;5.15;;;;;;;;;;4876138;29;20068;-63
2023/04/05 01:21:38;;;;;;;13.00;4.82;;;;;;;;;;4876210;29;20095;-63
2023/04/05 01:24:56;;;;;;;20.83;5.53;;;;;;;;;;4876130;29;20457;-62
2023/04/05 01:28:05;;;;;;;17.33;4.90;;;;;;;;;;4839097;29;20069;-61
2023/04/05 01:30:41;;;;;;;16.73;4.70;;;;;;;;;;4852876;29;20061;-62
2023/04/05 01:33:22;;;;;;;14.88;4.80;;;;;;;;;;4839078;29;20063;-63
2023/04/05 01:36:22;;;;;;;18.08;6.13;;;;;;;;;;4836122;29;20054;-63
2023/04/05 01:38:56;;;;;;;15.07;4.93;;;;;;;;;;4763390;30;20047;-62
2023/04/05 01:41:26;;;;;;;24.20;6.63;;;;;;;;;;4749974;30;20075;-63
2023/04/05 01:43:56;;;;;;;17.58;5.20;;;;;;;;;;4727780;30;20064;-62
2023/04/05 01:46:28;;;;;;;18.70;6.50;;;;;;;;;;4728334;30;20060;-63
2023/04/05 01:48:59;;;;;;;19.38;7.55;;;;;;;;;;4713462;30;20065;-63
2023/04/05 01:51:30;;;;;;;23.30;6.95;;;;;;;;;;4737197;30;20075;-64
2023/04/05 01:54:01;;;;;;;17.85;6.93;;;;;;;;;;4716662;30;20052;-63
2023/04/05 01:56:30;;;;;;;16.52;7.75;;;;;;;;;;4757641;30;20076;-63
2023/04/05 01:59:00;;;;;;;18.85;6.93;;;;;;;;;;4790985;29;20042;-62
2023/04/05 02:01:32;;;;;;;18.92;6.95;;;;;;;;;;4808981;29;20054;-62
2023/04/05 02:04:02;;;;;;;19.77;7.70;;;;;;;;;;4820643;29;20170;-62
2023/04/05 02:06:32;;;;;;;23.00;8.07;;;;;;;;;;4804723;29;20058;-62
2023/04/05 02:09:02;;;;;;;20.13;7.32;;;;;;;;;;4820245;29;20063;-63
2023/04/05 02:11:32;;;;;;;24.48;7.28;;;;;;;;;;4801941;29;20059;-62
2023/04/05 02:14:02;;;;;;;25.23;9.85;;;;;;;;;;4805238;29;20058;-62
2023/04/05 02:16:32;;;;;;;24.23;7.30;;;;;;;;;;4856979;29;20432;-62
2023/04/05 02:19:02;;;;;;;21.33;7.97;;;;;;;;;;4857155;29;20061;-62
2023/04/05 02:21:33;;;;;;;21.27;6.53;;;;;;;;;;4817453;29;20443;-63
2023/04/05 02:24:03;;;;;;;15.95;6.05;;;;;;;;;;4890932;29;20510;-61
2023/04/05 02:26:33;;;;;;;20.00;6.32;;;;;;;;;;4853221;29;20050;-62
2023/04/05 02:29:03;;;;;;;20.63;6.78;;;;;;;;;;4889915;29;20433;-62
2023/04/05 02:31:33;;;;;;;17.55;6.97;;;;;;;;;;4893690;29;20064;-62
2023/04/05 02:34:04;;;;;;;18.52;7.20;;;;;;;;;;4886873;29;20071;-63
2023/04/05 02:36:35;;;;;;;22.95;7.75;;;;;;;;;;4891831;29;20052;-62
2023/04/05 02:39:05;;;;;;;18.67;6.13;;;;;;;;;;4902401;29;20074;-63
2023/04/05 02:41:38;;;;;;;15.55;5.88;;;;;;;;;;4849921;29;20429;-63
2023/04/05 02:44:10;;;;;;;15.20;6.32;;;;;;;;;;4881046;29;20508;-64
2023/04/05 02:46:40;;;;;;;19.05;6.20;;;;;;;;;;4862800;29;20056;-63
2023/04/05 02:49:11;;;;;;;24.02;6.50;;;;;;;;;;4846808;29;20498;-63
2023/04/05 02:51:41;;;;;;;26.95;6.97;;;;;;;;;;4844176;29;20049;-63
2023/04/05 02:54:10;;;;;;;19.80;5.72;;;;;;;;;;4813474;29;20054;-63
2023/04/05 02:56:41;;;;;;;17.77;5.88;;;;;;;;;;4844066;29;20054;-63
2023/04/05 02:59:16;;;;;;;17.25;6.35;;;;;;;;;;4825588;29;20404;-63
2023/04/05 03:01:46;;;;;;;26.25;6.88;;;;;;;;;;4825741;29;20085;-63
2023/04/05 03:04:25;;;;;;;19.10;7.05;;;;;;;;;;4805356;29;20059;-65
2023/04/05 03:07:02;;;;;;;21.20;7.75;;;;;;;;;;4836971;29;20057;-66
2023/04/05 03:09:37;;;;;;;16.55;7.57;;;;;;;;;;4825766;29;20054;-64
2023/04/05 03:12:10;;;;;;;23.92;8.13;;;;;;;;;;4843774;29;20133;-65
2023/04/05 03:14:42;;;;;;;19.05;6.63;;;;;;;;;;4807203;29;20058;-63
2023/04/05 03:17:15;;;;;;;21.98;6.00;;;;;;;;;;4842443;29;20573;-63
2023/04/05 03:19:52;;;;;;;21.13;6.70;;;;;;;;;;4880962;29;20057;-63
2023/04/05 03:22:26;;;;;;;14.73;7.38;;;;;;;;;;4862045;29;20107;-63
2023/04/05 03:24:57;;;;;;;18.67;5.90;;;;;;;;;;4843971;29;20061;-60
2023/04/05 03:27:28;;;;;;;23.23;6.78;;;;;;;;;;4859148;29;20656;-61
2023/04/05 03:30:17;;;;;;;14.05;6.05;;;;;;;;;;4845964;29;20058;-61
2023/04/05 03:32:56;;;;;;;25.65;7.10;;;;;;;;;;4844776;29;20421;-61
2023/04/05 03:35:47;;;;;;;17.83;7.30;;;;;;;;;;4805821;29;20436;-62
2023/04/05 03:38:18;;;;;;;22.52;7.22;;;;;;;;;;4862068;29;20099;-62
2023/04/05 03:41:03;;;;;;;16.65;7.55;;;;;;;;;;4862160;29;20503;-62
2023/04/05 03:43:35;;;;;;;22.00;7.65;;;;;;;;;;4844246;29;20078;-62
2023/04/05 03:46:06;;;;;;;21.13;7.03;;;;;;;;;;4862234;29;20062;-63
2023/04/05 03:48:36;;;;;;;14.70;6.72;;;;;;;;;;4880467;29;20060;-62
2023/04/05 03:51:07;;;;;;;21.83;6.18;;;;;;;;;;4862012;29;20061;-62
2023/04/05 03:53:37;;;;;;;18.10;5.82;;;;;;;;;;4821714;29;20069;-62
2023/04/05 03:56:07;;;;;;;12.60;4.88;;;;;;;;;;4821564;29;20058;-62
2023/04/05 03:58:44;;;;;;;15.48;5.65;;;;;;;;;;4804264;29;20531;-62
2023/04/05 04:01:15;;;;;;;18.65;5.80;;;;;;;;;;4790501;29;20059;-63
2023/04/05 04:03:45;;;;;;;14.88;6.05;;;;;;;;;;4802632;29;20067;-62
2023/04/05 04:06:15;;;;;;;21.00;6.57;;;;;;;;;;4804089;29;20058;-62
2023/04/05 04:08:47;;;;;;;16.60;6.68;;;;;;;;;;4822063;29;20062;-62
2023/04/05 04:11:17;;;;;;;14.95;5.75;;;;;;;;;;4801994;29;20071;-62
2023/04/05 04:13:48;;;;;;;13.35;5.28;;;;;;;;;;4788870;29;20524;-62
2023/04/05 04:16:24;;;;;;;13.35;4.38;;;;;;;;;;4791826;29;20051;-62
2023/04/05 04:19:04;;;;;;;15.85;4.50;;;;;;;;;;4813689;29;20051;-61
2023/04/05 04:21:34;;;;;;;19.80;5.43;;;;;;;;;;4797514;29;20061;-62
2023/04/05 04:24:32;;;;;;;18.38;5.20;;;;;;;;;;4786068;29;20548;-61
2023/04/05 04:27:34;;;;;;;21.27;5.78;;;;;;;;;;4779308;29;20051;-61
2023/04/05 04:30:12;;;;;;;19.02;5.70;;;;;;;;;;4767728;30;20075;-62
2023/04/05 04:32:54;;;;;;;16.05;5.22;;;;;;;;;;4765180;30;20056;-62
2023/04/05 04:35:45;;;;;;;13.77;4.53;;;;;;;;;;4767659;30;20505;-61
2023/04/05 04:38:49;;;;;;;14.35;5.38;;;;;;;;;;4777282;30;20068;-62
2023/04/05 04:41:37;;;;;;;14.95;5.55;;;;;;;;;;4768395;30;20063;-61
2023/04/05 04:44:29;;;;;;;13.82;5.93;;;;;;;;;;4791117;29;20409;-61
2023/04/05 04:47:20;;;;;;;18.42;5.57;;;;;;;;;;4781023;29;20066;-62
2023/04/05 04:50:04;;;;;;;15.85;6.13;;;;;;;;;;4820236;29;20070;-62
2023/04/05 04:52:34;;;;;;;18.08;5.68;;;;;;;;;;4804808;29;20063;-61
2023/04/05 04:55:04;;;;;;;14.93;5.57;;;;;;;;;;4803447;29;20067;-62
2023/04/05 04:57:36;;;;;;;17.65;5.70;;;;;;;;;;4788483;29;20060;-62
2023/04/05 05:00:12;;;;;;;17.13;5.30;;;;;;;;;;4771488;29;20432;-62
2023/04/05 05:02:42;;;;;;;16.05;4.75;;;;;;;;;;4788269;29;20051;-62
2023/04/05 05:05:15;;;;;;;21.92;5.68;;;;;;;;;;4803518;29;20058;-62
2023/04/05 05:07:45;;;;;;;17.27;4.82;;;;;;;;;;4856069;29;20072;-62
2023/04/05 05:10:15;;;;;;;15.40;5.10;;;;;;;;;;4887677;29;20060;-63
2023/04/05 05:12:47;;;;;;;12.90;4.95;;;;;;;;;;4876451;29;20057;-62
2023/04/05 05:15:18;;;;;;;18.02;5.10;;;;;;;;;;4876234;29;20068;-62
2023/04/05 05:17:51;;;;;;;16.35;5.97;;;;;;;;;;4861071;29;20115;-63
2023/04/05 05:20:21;;;;;;;15.15;5.70;;;;;;;;;;4876511;29;20053;-62
2023/04/05 05:22:51;;;;;;;15.00;5.35;;;;;;;;;;4907187;29;20087;-63
2023/04/05 05:25:21;;;;;;;16.50;4.78;;;;;;;;;;4913936;29;20056;-63
2023/04/05 05:27:51;;;;;;;18.27;5.15;;;;;;;;;;4935303;29;20063;-62
2023/04/05 05:30:23;;;;;;;10.93;4.20;;;;;;;;;;4964067;28;20047;-62
2023/04/05 05:32:53;;;;;;;13.90;4.63;;;;;;;;;;4939670;28;20055;-62
2023/04/05 05:35:23;;;;;;;11.57;4.88;;;;;;;;;;4938547;28;20376;-62
2023/04/05 05:37:53;;;;;;;10.80;4.07;;;;;;;;;;4970938;28;20065;-63
2023/04/05 05:40:25;;;;;;;12.25;5.03;;;;;;;;;;4938705;28;20046;-62
2023/04/05 05:42:55;;;;;;;;;;;;;;;;;;4961607;28;20550;-62
2023/04/05 05:45:26;;;;;;;13.00;4.60;;;;;;;;;;4946174;29;19922;-61
2023/04/05 05:47:56;;;;;;;12.85;4.28;;;;;;;;;;4906513;29;20064;-62
2023/04/05 05:50:26;;;;;;;13.07;5.38;;;;;;;;;;4922895;29;20062;-63
2023/04/05 05:52:56;;;;;;;12.30;5.53;;;;;;;;;;4932258;29;20051;-63
2023/04/05 05:55:29;;;;;;;16.75;7.00;;;;;;;;;;4916107;29;20110;-62
2023/04/05 05:57:59;;;;;;;18.52;5.68;;;;;;;;;;4932273;29;20064;-62
2023/04/05 06:00:29;;;;;;;17.95;6.60;;;;;;;;;;4932344;29;20488;-62
2023/04/05 06:03:00;;;;;;;15.07;4.88;;;;;;;;;;4932443;29;20060;-62
2023/04/05 06:05:30;;;;;;;12.95;4.65;;;;;;;;;;4916820;29;20056;-62
2023/04/05 06:08:00;;;;;;;14.32;5.30;;;;;;;;;;4950716;28;20491;-62
2023/04/05 06:10:30;;;;;;;13.15;4.80;;;;;;;;;;4970774;28;20062;-63
2023/04/05 06:13:01;;;;;;;13.10;5.10;;;;;;;;;;4970672;28;20054;-62
2023/04/05 06:15:31;;;;;;;14.32;4.60;;;;;;;;;;4906494;28;20055;-62
2023/04/05 06:18:01;;;;;;;12.98;4.65;;;;;;;;;;4954819;28;20514;-62
2023/04/05 06:20:31;;;;;;;13.18;5.15;;;;;;;;;;4970772;28;20054;-62
2023/04/05 06:23:01;;;;;;;14.82;5.40;;;;;;;;;;4990037;28;20498;-63
2023/04/05 06:25:31;;;;;;;11.73;4.78;;;;;;;;;;4977625;28;20057;-63
2023/04/05 06:28:05;;;;;;;17.98;5.47;;;;;;;;;;5011910;28;20057;-62
2023/04/05 06:30:35;;;;;;;15.00;5.45;;;;;;;;;;4977550;28;20057;-62
2023/04/05 06:33:05;;;;;;;16.40;6.15;;;;;;;;;;4993480;28;20422;-62
2023/04/05 06:35:35;;;;;;;13.70;6.32;;;;;;;;;;4993095;28;20413;-63
2023/04/05 06:38:05;;;;;;;14.80;5.75;;;;;;;;;;5011713;28;20072;-62
2023/04/05 06:40:36;;;;;;;18.63;6.40;;;;;;;;;;5011811;28;20053;-62
2023/04/05 06:43:06;;;;;;;11.50;5.47;;;;;;;;;;4978107;28;20061;-62
2023/04/05 06:45:36;;;;;;;12.52;5.13;;;;;;;;;;5011747;28;20045;-63
2023/04/05 06:48:07;;;;;;;11.35;5.38;;;;;;;;;;5011444;28;20410;-62
2023/04/05 06:50:38;;;;;;;16.25;5.50;;;;;;;;;;4993582;28;20490;-63
2023/04/05 06:53:08;;;;;;;15.45;5.55;;;;;;;;;;5011443;28;20065;-63
2023/04/05 06:55:39;;;;;;;13.98;5.53;;;;;;;;;;5011548;28;20497;-63
2023/04/05 06:58:09;;;;;;;12.93;4.82;;;;;;;;;;4950685;29;20051;-62
2023/04/05 07:00:39;;;;;;;15.10;5.90;;;;;;;;;;4950894;29;20066;-63
2023/04/05 07:03:10;;;;;;;12.88;4.82;;;;;;;;;;4950830;29;20055;-62
2023/04/05 07:05:39;;;;;;;12.02;4.40;;;;;;;;;;4931735;29;20064;-63
2023/04/05 07:08:10;;;;;;;17.20;5.28;;;;;;;;;;4931555;29;20055;-63
2023/04/05 07:10:40;;;;;;;17.00;5.85;;;;;;;;;;4916414;29;20060;-63
2023/04/05 07:13:10;;;;;;;13.63;5.55;;;;;;;;;;4912450;29;20416;-62
2023/04/05 07:15:40;;;;;;;14.13;5.40;;;;;;;;;;4897204;29;20126;-63
2023/04/05 07:18:10;;;;;;;16.40;5.75;;;;;;;;;;4896759;29;20052;-62
2023/04/05 07:20:40;;;;;;;22.33;6.63;;;;;;;;;;4912635;29;20044;-62
2023/04/05 07:23:10;;;;;;;18.38;6.10;;;;;;;;;;4820104;29;20052;-62
2023/04/05 07:25:40;;;;;;;16.13;6.55;;;;;;;;;;4881197;29;20053;-63
2023/04/05 07:28:10;;;;;;;16.23;6.32;;;;;;;;;;4915985;29;20051;-63
2023/04/05 07:30:40;;;;;;;25.25;7.05;;;;;;;;;;4954107;29;20106;-63
2023/04/05 07:33:11;;;;;;;18.30;6.55;;;;;;;;;;4954135;29;20058;-62
2023/04/05 07:35:41;;;;;;;20.83;6.90;;;;;;;;;;4954277;28;20395;-63
2023/04/05 07:38:11;;;;;;;17.20;6.50;;;;;;;;;;4953913;28;20059;-62
2023/04/05 07:40:41;;;;;;;15.73;7.03;;;;;;;;;;4915708;29;20056;-63
2023/04/05 07:43:12;;;;;;;17.95;5.68;;;;;;;;;;4868097;29;20065;-62
2023/04/05 07:45:42;;;;;;;11.20;5.47;;;;;;;;;;4878103;29;20057;-62
2023/04/05 07:48:13;;;;;;;13.75;5.13;;;;;;;;;;4877961;29;20084;-63
2023/04/05 07:50:46;;;;;;;13.32;4.95;;;;;;;;;;4896063;29;20064;-62
2023/04/05 07:53:16;;;;;;;12.43;5.90;;;;;;;;;;4915508;29;20408;-63
2023/04/05 07:55:46;;;;;;;14.48;4.78;;;;;;;;;;4915609;29;20064;-62
2023/04/05 07:58:15;;;;;;;13.23;4.80;;;;;;;;;;4868887;29;20060;-63
2023/04/05 08:00:45;;;;;;;11.23;4.30;;;;;;;;;;4869971;29;20060;-62
2023/04/05 08:03:15;;;;;;;12.52;4.53;;;;;;;;;;4915503;29;20059;-62
2023/04/05 08:05:45;;;;;;;13.63;4.28;;;;;;;;;;4915503;29;20064;-62
2023/04/05 08:08:15;;;;;;;14.88;5.18;;;;;;;;;;4915591;29;20064;-62
2023/04/05 08:10:45;;;;;;;14.43;5.38;;;;;;;;;;4917225;29;20052;-62
2023/04/05 08:13:15;;;;;;;13.15;5.90;;;;;;;;;;4953544;29;20527;-62
2023/04/05 08:15:45;;;;;;;14.00;6.03;;;;;;;;;;4918426;29;20066;-63
2023/04/05 08:18:14;;;;;;;18.05;6.43;;;;;;;;;;4918231;29;20063;-63
2023/04/05 08:20:44;;;;;;;17.20;5.90;;;;;;;;;;4952732;28;20059;-62
2023/04/05 08:23:14;;;;;;;14.60;5.88;;;;;;;;;;4972655;28;20388;-63
2023/04/05 08:25:44;;;;;;;13.23;6.13;;;;;;;;;;4959646;28;20537;-63
2023/04/05 08:28:14;;;;;;;15.50;5.80;;;;;;;;;;4959381;28;20753;-63
2023/04/05 08:30:45;;;;;;;16.20;6.50;;;;;;;;;;4992021;28;20157;-62
2023/04/05 08:33:15;;;;;;;15.73;6.10;;;;;;;;;;4972400;28;20055;-63
2023/04/05 08:35:45;;;;;;;17.73;6.32;;;;;;;;;;4972361;28;20102;-62
2023/04/05 08:38:15;;;;;;;16.50;6.60;;;;;;;;;;4924314;28;20051;-63
2023/04/05 08:40:46;;;;;;;21.50;7.22;;;;;;;;;;4924352;28;20059;-62
2023/04/05 08:43:46;;;;;;;18.58;6.60;;;;;;;;;;4956538;28;20065;-62
2023/04/05 08:46:18;;;;;;;18.83;7.05;;;;;;;;;;4981486;28;20551;-62
2023/04/05 08:48:48;;;;;;;14.82;6.85;;;;;;;;;;4909179;28;20055;-62
2023/04/05 08:51:21;;;;;;;17.00;7.50;;;;;;;;;;4952549;28;20058;-62
2023/04/05 08:53:53;;;;;;;15.88;6.57;;;;;;;;;;4908144;29;20079;-62
2023/04/05 08:56:31;;;;;;;17.42;6.85;;;;;;;;;;4933512;29;20052;-63
2023/04/05 08:59:02;;;;;;;16.05;7.13;;;;;;;;;;4901780;29;20459;-62
2023/04/05 09:01:36;;;;;;;17.35;6.28;;;;;;;;;;4951814;29;20058;-62
2023/04/05 09:04:27;;;;;;;17.55;6.18;;;;;;;;;;4905120;29;20579;-62
2023/04/05 09:07:00;;;;;;;13.80;6.25;;;;;;;;;;4914234;29;20527;-62
2023/04/05 09:09:35;;;;;;;15.13;6.50;;;;;;;;;;4897916;29;20055;-63
2023/04/05 09:12:06;;;;;;;14.00;6.68;;;;;;;;;;4852183;29;20056;-62
2023/04/05 09:14:38;;;;;;;16.17;6.20;;;;;;;;;;4913929;29;20083;-62
2023/04/05 09:17:09;;;;;;;14.45;6.32;;;;;;;;;;4914339;29;20513;-61
2023/04/05 09:19:39;;;;;;;17.25;6.32;;;;;;;;;;4897756;29;20075;-62
2023/04/05 09:22:10;;;;;;;13.43;6.63;;;;;;;;;;4906230;29;20402;-62
2023/04/05 09:24:42;;;;;;;16.90;6.60;;;;;;;;;;4882355;29;20056;-62
2023/04/05 09:27:15;;;;;;;12.20;5.57;;;;;;;;;;4894768;29;20068;-61
2023/04/05 09:29:50;;;;;;;15.85;6.10;;;;;;;;;;4934367;29;20054;-62
2023/04/05 09:32:28;;;;;;;18.88;6.43;;;;;;;;;;4917561;29;20124;-62
2023/04/05 09:35:02;;;;;;;14.45;6.40;;;;;;;;;;4864419;29;20059;-62
2023/04/05 09:37:35;;;;;;;16.23;6.50;;;;;;;;;;4875615;29;20045;-62
2023/04/05 09:40:05;;;;;;;16.20;6.22;;;;;;;;;;4891955;29;20167;-61
2023/04/05 09:42:45;;;;;;;18.95;5.90;;;;;;;;;;4894668;29;20433;-62
2023/04/05 09:45:17;;;;;;;12.25;5.53;;;;;;;;;;4880134;29;20391;-62
2023/04/05 09:47:57;;;;;;;12.38;5.85;;;;;;;;;;4880202;29;20059;-62
2023/04/05 09:50:28;;;;;;;15.27;5.97;;;;;;;;;;4909599;29;20059;-62
2023/04/05 09:53:08;;;;;;;15.63;5.80;;;;;;;;;;4894124;29;20068;-63
2023/04/05 09:55:38;;;;;;;13.38;5.60;;;;;;;;;;4878876;29;20393;-62
2023/04/05 09:58:18;;;;;;;12.35;4.55;;;;;;;;;;4894200;29;20071;-62
2023/04/05 10:00:53;;;;;;;13.57;4.85;;;;;;;;;;4894573;29;20490;-63
2023/04/05 10:03:47;;;;;;;10.02;4.65;;;;;;;;;;4868646;29;20493;-63
2023/04/05 10:06:18;;;;;;;15.98;5.00;;;;;;;;;;4878558;29;20053;-62
2023/04/05 10:08:49;;;;;;;13.88;5.97;;;;;;;;;;4900489;29;20048;-62
2023/04/05 10:11:21;;;;;;;9.38;4.78;;;;;;;;;;4932005;29;20428;-62
2023/04/05 10:13:51;;;;;;;13.57;5.20;;;;;;;;;;4938788;28;20066;-63
2023/04/05 10:16:24;;;;;;;11.88;6.28;;;;;;;;;;4988982;28;20434;-62
2023/04/05 10:18:54;;;;;;;10.43;5.35;;;;;;;;;;4989964;28;20054;-62
2023/04/05 10:21:32;;;;;;;12.70;5.40;;;;;;;;;;4973581;28;20055;-62
2023/04/05 10:24:29;;;;;;;11.68;5.55;;;;;;;;;;4990007;28;20495;-62
2023/04/05 10:27:17;;;;;;;11.57;5.03;;;;;;;;;;4989798;28;20050;-62
2023/04/05 10:30:07;;;;;;;11.82;5.80;;;;;;;;;;4940346;28;20046;-63
2023/04/05 10:32:50;;;;;;;14.27;6.45;;;;;;;;;;4992329;28;20514;-62
2023/04/05 10:35:44;;;;;;;16.40;6.15;;;;;;;;;;4991896;28;20053;-63
2023/04/05 10:38:23;;;;;;;15.45;5.95;;;;;;;;;;4916013;29;20048;-63
2023/04/05 10:41:08;;;;;;;13.25;6.20;;;;;;;;;;4931902;29;20432;-62
2023/04/05 10:43:40;;;;;;;18.27;6.03;;;;;;;;;;4931622;29;20067;-62
2023/04/05 10:46:11;;;;;;;14.20;6.07;;;;;;;;;;4884897;29;20055;-62
2023/04/05 10:49:01;;;;;;;16.98;6.30;;;;;;;;;;4932239;29;20074;-62
2023/04/05 10:51:33;;;;;;;17.95;5.22;;;;;;;;;;4812729;29;20072;-63
2023/04/05 10:54:07;;;;;;;19.80;5.43;;;;;;;;;;4829526;29;20054;-63
2023/04/05 10:56:38;;;;;;;15.70;6.15;;;;;;;;;;4837309;29;20053;-64
2023/04/05 10:59:11;;;;;;;15.10;5.90;;;;;;;;;;4837999;29;20064;-63
2023/04/05 11:01:42;;;;;;;18.15;5.97;;;;;;;;;;4839085;29;20096;-63
2023/04/05 11:04:14;;;;;;;12.63;5.95;;;;;;;;;;4841576;29;20050;-63
2023/04/05 11:06:47;;;;;;;14.00;6.03;;;;;;;;;;4826206;29;20054;-63
2023/04/05 11:09:21;;;;;;;15.40;6.22;;;;;;;;;;4847613;29;20518;-64
2023/04/05 11:11:52;;;;;;;25.40;7.15;;;;;;;;;;4841731;29;20053;-62
2023/04/05 11:14:34;;;;;;;15.05;6.15;;;;;;;;;;4844187;29;20057;-63
2023/04/05 11:17:22;;;;;;;13.73;5.85;;;;;;;;;;4897399;29;20179;-63
2023/04/05 11:20:10;;;;;;;16.77;6.03;;;;;;;;;;4897284;29;20049;-62
2023/04/05 11:22:53;;;;;;;16.42;6.45;;;;;;;;;;4897423;29;20079;-62
2023/04/05 11:25:24;;;;;;;20.85;9.57;;;;;;;;;;4897161;29;20072;-63
2023/04/05 11:28:00;;;;;;;18.08;6.57;;;;;;;;;;4865916;28;20066;-62
2023/04/05 11:30:55;;;;;;;13.75;6.57;;;;;;;;;;5006164;28;20062;-62
2023/04/05 11:33:37;;;;;;;24.63;9.15;;;;;;;;;;5012390;28;20045;-63
2023/04/05 11:36:08;;;;;;;19.33;7.70;;;;;;;;;;5012436;28;20057;-63
2023/04/05 11:38:41;;;;;;;34.13;12.05;;;;;;;;;;5012383;28;20708;-63
2023/04/05 11:41:16;;;;;;;38.00;16.92;;;;;;;;;;5012344;28;20378;-63
2023/04/05 11:43:47;;;;;;;17.58;5.90;;;;;;;;;;5010212;28;20068;-62
2023/04/05 11:46:20;;;;;;;18.23;6.00;;;;;;;;;;5011887;28;20060;-64
2023/04/05 11:48:50;;;;;;;15.70;6.00;;;;;;;;;;5010300;28;20422;-62
2023/04/05 11:51:21;;;;;;;16.05;5.40;;;;;;;;;;5011787;28;20073;-64
2023/04/05 11:53:53;;;;;;;17.73;5.15;;;;;;;;;;5011944;28;20042;-61
2023/04/05 11:56:23;;;;;;;17.15;6.15;;;;;;;;;;5011573;28;20193;-62
2023/04/05 11:58:57;;;;;;;13.18;5.72;;;;;;;;;;4979378;28;20054;-62
2023/04/05 12:01:27;;;;;;;15.93;5.70;;;;;;;;;;5014407;28;20049;-63
2023/04/05 12:03:57;;;;;;;16.58;5.60;;;;;;;;;;5014634;28;20070;-63
2023/04/05 12:06:27;;;;;;;18.70;7.43;;;;;;;;;;4972204;28;20058;-62
2023/04/05 12:08:57;;;;;;;12.35;5.15;;;;;;;;;;4933748;29;20052;-63
2023/04/05 12:11:29;;;;;;;33.20;12.50;;;;;;;;;;4902158;29;20059;-63
2023/04/05 12:14:01;;;;;;;47.20;16.90;;;;;;;;;;4931096;29;20056;-62
2023/04/05 12:16:31;;;;;;;30.40;13.90;;;;;;;;;;4933782;29;20051;-62
2023/04/05 12:19:01;;;;;;;23.85;10.90;;;;;;;;;;4916270;29;20052;-63
2023/04/05 12:21:32;;;;;;;12.25;6.85;;;;;;;;;;4933471;29;20063;-63
2023/04/05 12:24:02;;;;;;;18.75;8.40;;;;;;;;;;4908362;29;21218;-63
2023/04/05 12:26:57;;;;;;;13.70;5.35;;;;;;;;;;4925380;29;20070;-63
2023/04/05 12:29:28;;;;;;;16.13;5.15;;;;;;;;;;4939957;28;20055;-62
2023/04/05 12:32:03;;;;;;;9.40;4.80;;;;;;;;;;4969881;28;20069;-63
2023/04/05 12:34:36;;;;;;;13.13;5.20;;;;;;;;;;4972092;28;20051;-63
2023/04/05 12:37:06;;;;;;;13.50;5.40;;;;;;;;;;4898636;29;20044;-63
2023/04/05 12:39:37;;;;;;;11.07;5.00;;;;;;;;;;4914816;29;20056;-63
2023/04/05 12:42:16;;;;;;;20.20;6.55;;;;;;;;;;4914745;29;20056;-63
2023/04/05 12:45:03;;;;;;;12.73;5.30;;;;;;;;;;4914512;29;20052;-63
2023/04/05 12:47:34;;;;;;;13.57;5.15;;;;;;;;;;4904396;28;20066;-63
2023/04/05 12:50:18;;;;;;;13.10;5.65;;;;;;;;;;4972349;28;20053;-63
2023/04/05 12:52:56;;;;;;;12.52;6.30;;;;;;;;;;4971900;28;20410;-64
2023/04/05 12:55:28;;;;;;;16.77;6.75;;;;;;;;;;4936766;29;21094;-63
2023/04/05 12:58:02;;;;;;;16.45;6.43;;;;;;;;;;4929119;28;20070;-63
2023/04/05 13:00:33;;;;;;;17.63;5.70;;;;;;;;;;4952714;29;20062;-62
2023/04/05 13:03:02;;;;;;;11.32;5.22;;;;;;;;;;4952655;29;20051;-63
2023/04/05 13:05:32;;;;;;;13.88;4.97;;;;;;;;;;4917048;29;20044;-63
2023/04/05 13:08:02;;;;;;;10.30;4.78;;;;;;;;;;4933055;29;20519;-63
2023/04/05 13:10:32;;;;;;;14.18;4.72;;;;;;;;;;4933478;29;20063;-63
2023/04/05 13:13:02;;;;;;;13.23;4.80;;;;;;;;;;4919595;29;20102;-63
2023/04/05 13:15:32;;;;;;;10.52;5.50;;;;;;;;;;4948347;28;20062;-63
2023/04/05 13:18:02;;;;;;;12.32;5.20;;;;;;;;;;5008476;28;20050;-64
2023/04/05 13:20:32;;;;;;;12.40;5.35;;;;;;;;;;5010614;28;20545;-63
2023/04/05 13:23:01;;;;;;;15.95;4.60;;;;;;;;;;4967645;28;20071;-63
2023/04/05 13:25:31;;;;;;;9.73;4.63;;;;;;;;;;4986158;28;20074;-64
2023/04/05 13:28:01;;;;;;;11.73;5.22;;;;;;;;;;5004527;28;20058;-63
2023/04/05 13:30:31;;;;;;;8.68;4.25;;;;;;;;;;4939941;28;20054;-63
2023/04/05 13:33:02;;;;;;;10.00;4.75;;;;;;;;;;4958033;28;20058;-63
2023/04/05 13:35:34;;;;;;;9.85;4.55;;;;;;;;;;4995397;28;20045;-62
2023/04/05 13:38:04;;;;;;;8.35;4.10;;;;;;;;;;5010399;28;20545;-64
2023/04/05 13:40:34;;;;;;;10.73;4.47;;;;;;;;;;5010300;28;20524;-63
2023/04/05 13:43:05;;;;;;;10.38;4.40;;;;;;;;;;5011402;28;20054;-64
2023/04/05 13:45:36;;;;;;;8.52;3.88;;;;;;;;;;4995735;28;20053;-63
2023/04/05 13:48:07;;;;;;;10.35;3.97;;;;;;;;;;5014292;28;20398;-63
2023/04/05 13:50:37;;;;;;;9.30;4.32;;;;;;;;;;5031798;28;20113;-64
2023/04/05 13:53:07;;;;;;;8.35;3.97;;;;;;;;;;5031779;28;20056;-64
2023/04/05 13:55:38;;;;;;;8.85;4.07;;;;;;;;;;5031484;28;20041;-64
2023/04/05 13:58:08;;;;;;;7.85;3.60;;;;;;;;;;5028499;28;20049;-63
2023/04/05 14:00:39;;;;;;;10.13;4.10;;;;;;;;;;5012843;28;20425;-63
2023/04/05 14:03:10;;;;;;;10.27;4.53;;;;;;;;;;4998605;28;20053;-63
2023/04/05 14:05:40;;;;;;;7.28;3.97;;;;;;;;;;5031736;28;20489;-63
2023/04/05 14:08:09;;;;;;;9.35;3.65;;;;;;;;;;4981042;28;20417;-63
2023/04/05 14:10:39;;;;;;;10.05;3.92;;;;;;;;;;5031931;28;20072;-62
2023/04/05 14:13:12;;;;;;;8.05;3.65;;;;;;;;;;5031593;28;20037;-62
2023/04/05 14:15:42;;;;;;;9.55;4.28;;;;;;;;;;4996775;28;20045;-62
2023/04/05 14:58:04;;;;;;;6.47;3.47;;;;;;;;;;5031825;28;20045;-63
2023/04/05 15:00:34;;;;;;;10.75;3.72;;;;;;;;;;4992341;28;20057;-63
2023/04/05 15:03:05;;;;;;;7.85;3.80;;;;;;;;;;4973441;28;20059;-63
2023/04/05 15:05:35;;;;;;;9.52;3.90;;;;;;;;;;4995034;28;20049;-65
2023/04/05 15:08:05;;;;;;;9.70;4.20;;;;;;;;;;4996902;28;20050;-64
2023/04/05 15:10:35;;;;;;;7.57;3.60;;;;;;;;;;4976176;28;20049;-64
2023/04/05 15:13:05;;;;;;;7.57;3.83;;;;;;;;;;5006191;28;20065;-64
2023/04/05 15:15:36;;;;;;;8.23;4.22;;;;;;;;;;4945446;28;20065;-65
2023/04/05 15:18:07;;;;;;;7.78;3.45;;;;;;;;;;5008926;28;20061;-65
2023/04/05 15:20:37;;;;;;;11.45;3.92;;;;;;;;;;4959996;28;20050;-64
2023/04/05 15:23:10;;;;;;;7.82;4.00;;;;;;;;;;5005223;28;20049;-65
2023/04/05 15:25:41;;;;;;;11.55;3.78;;;;;;;;;;5004633;28;20434;-64
2023/04/05 15:28:11;;;;;;;12.35;4.53;;;;;;;;;;4997936;28;20057;-64
2023/04/05 15:30:43;;;;;;;9.95;3.92;;;;;;;;;;4975945;28;20535;-64
2023/04/05 15:33:35;;;;;;;8.27;3.83;;;;;;;;;;4995335;28;20046;-64
2023/04/05 15:36:27;;;;;;;10.30;3.90;;;;;;;;;;4956937;28;20065;-64
2023/04/05 15:38:57;;;;;;;9.23;3.63;;;;;;;;;;4903544;29;20062;-63
2023/04/05 15:41:30;;;;;;;8.10;3.75;;;;;;;;;;4950344;29;20406;-64
2023/04/05 15:44:03;;;;;;;6.50;3.53;;;;;;;;;;4889185;29;20082;-64
2023/04/05 15:46:35;;;;;;;9.90;3.85;;;;;;;;;;4930371;29;20066;-64
2023/04/05 15:49:09;;;;;;;8.48;4.10;;;;;;;;;;4930666;29;20516;-64